createdAt,value
2016-12-12T00:00:36.073Z,43.75
2016-12-12T00:01:36.404Z,43.85
2016-12-12T00:02:36.442Z,44.23
2016-12-12T00:03:36.467Z,43.85
2016-12-12T00:04:36.188Z,43.85
2016-12-12T00:05:36.212Z,43.75
2016-12-12T00:06:36.549Z,43.85
2016-12-12T00:07:36.581Z,43.75
2016-12-12T00:08:36.306Z,43.85
2016-12-12T00:09:36.639Z,44.23
2016-12-12T00:10:36.660Z,44.62
2016-12-12T00:11:36.693Z,44.71
2016-12-12T00:12:36.714Z,44.42
2016-12-12T00:13:36.750Z,44.42
2016-12-12T00:14:36.802Z,43.85
2016-12-12T00:15:36.804Z,44.04
2016-12-12T00:16:36.541Z,44.42
2016-12-12T00:17:36.866Z,44.52
2016-12-12T00:18:36.894Z,44.52
2016-12-12T00:19:36.915Z,44.32
2016-12-12T00:20:36.948Z,44.52
2016-12-12T00:21:36.968Z,44.52
2016-12-12T00:22:36.693Z,44.52
2016-12-12T00:23:36.718Z,44.42
2016-12-12T00:24:37.062Z,44.52
2016-12-12T00:25:37.081Z,44.32
2016-12-12T00:26:37.108Z,44.23
2016-12-12T00:27:37.141Z,44.52
2016-12-12T00:28:37.157Z,44.42
2016-12-12T00:29:37.186Z,44.13
2016-12-12T00:30:36.923Z,44.52
2016-12-12T00:31:37.244Z,44.52
2016-12-12T00:32:37.269Z,44.42
2016-12-12T00:33:37.305Z,44.52
2016-12-12T00:34:37.036Z,44.32
2016-12-12T00:35:37.060Z,44.32
2016-12-12T00:36:37.384Z,44.42
2016-12-12T00:37:37.413Z,44.42
2016-12-12T00:38:37.436Z,44.23
2016-12-12T00:39:37.166Z,44.52
2016-12-12T00:40:37.499Z,44.42
2016-12-12T00:41:37.529Z,44.23
2016-12-12T00:42:37.257Z,43.75
2016-12-12T00:43:37.585Z,44.23
2016-12-12T00:44:37.618Z,44.13
2016-12-12T00:45:37.333Z,44.23
2016-12-12T00:46:37.668Z,44.32
2016-12-12T00:47:37.388Z,44.42
2016-12-12T00:48:37.421Z,44.13
2016-12-12T00:49:37.446Z,44.42
2016-12-12T00:50:37.779Z,44.49
2016-12-12T00:51:37.503Z,44.42
2016-12-12T00:52:37.537Z,44.23
2016-12-12T00:53:37.861Z,44.32
2016-12-12T00:54:37.894Z,44.52
2016-12-12T00:55:37.916Z,44.32
2016-12-12T00:56:37.937Z,44.13
2016-12-12T00:57:37.969Z,44.02
2016-12-12T00:58:37.996Z,44.23
2016-12-12T00:59:38.026Z,44.23
2016-12-12T01:00:37.754Z,44.13
2016-12-12T01:01:38.095Z,44.59
2016-12-12T01:02:37.816Z,44.52
2016-12-12T01:03:38.141Z,44.31
2016-12-12T01:04:38.161Z,44.49
2016-12-12T01:05:38.194Z,44.13
2016-12-12T01:06:38.223Z,44.32
2016-12-12T01:07:38.264Z,44.49
2016-12-12T01:08:38.281Z,44.42
2016-12-12T01:09:38.301Z,44.32
2016-12-12T01:10:38.038Z,44.49
2016-12-12T01:11:38.059Z,44.42
2016-12-12T01:12:38.399Z,44.4
2016-12-12T01:13:38.421Z,44.31
2016-12-12T01:14:38.137Z,43.73
2016-12-12T01:15:38.478Z,44.21
2016-12-12T01:16:38.507Z,44.31
2016-12-12T01:17:38.228Z,43.73
2016-12-12T01:18:38.256Z,43.82
2016-12-12T01:19:38.594Z,43.82
2016-12-12T01:20:38.310Z,43.92
2016-12-12T01:21:38.339Z,43.54
2016-12-12T01:22:38.371Z,43.82
2016-12-12T01:23:38.704Z,43.92
2016-12-12T01:24:38.734Z,44.02
2016-12-12T01:25:38.754Z,44.49
2016-12-12T01:26:38.787Z,44.11
2016-12-12T01:27:38.536Z,44.4
2016-12-12T01:28:38.536Z,44.11
2016-12-12T01:29:38.557Z,44.4
2016-12-12T01:30:38.893Z,44.4
2016-12-12T01:31:38.918Z,44.21
2016-12-12T01:32:38.651Z,44.49
2016-12-12T01:33:38.672Z,44.31
2016-12-12T01:34:39.009Z,44.49
2016-12-12T01:35:39.037Z,44.02
2016-12-12T01:36:38.762Z,44.21
2016-12-12T01:37:39.096Z,44.31
2016-12-12T01:38:39.116Z,44.49
2016-12-12T01:39:39.141Z,44.49
2016-12-12T01:40:39.167Z,44.31
2016-12-12T01:41:39.198Z,44.49
2016-12-12T01:42:39.226Z,44.31
2016-12-12T01:43:39.255Z,44.49
2016-12-12T01:44:39.291Z,44.31
2016-12-12T01:45:39.013Z,44.4
2016-12-12T01:46:39.042Z,44.11
2016-12-12T01:47:39.359Z,43.92
2016-12-12T01:48:39.391Z,44.49
2016-12-12T01:49:39.415Z,44.31
2016-12-12T01:50:39.448Z,44.31
2016-12-12T01:51:39.481Z,44.21
2016-12-12T01:52:39.505Z,44.31
2016-12-12T01:53:39.527Z,44.49
2016-12-12T01:54:39.560Z,44.31
2016-12-12T01:55:39.597Z,44.31
2016-12-12T01:56:39.609Z,44.21
2016-12-12T01:57:39.643Z,44.4
2016-12-12T01:58:39.670Z,44.21
2016-12-12T01:59:39.393Z,44.31
2016-12-12T02:00:39.716Z,44.11
2016-12-12T02:01:39.452Z,44.21
2016-12-12T02:02:39.481Z,44.49
2016-12-12T02:03:39.502Z,44.31
2016-12-12T02:04:39.837Z,44.31
2016-12-12T02:05:39.858Z,44.31
2016-12-12T02:06:39.884Z,44.31
2016-12-12T02:07:39.920Z,43.82
2016-12-12T02:08:39.950Z,44.4
2016-12-12T02:09:39.974Z,44.21
2016-12-12T02:10:39.695Z,44.48
2016-12-12T02:11:39.728Z,44.31
2016-12-12T02:12:39.761Z,44.4
2016-12-12T02:13:40.081Z,44.4
2016-12-12T02:14:40.114Z,44.19
2016-12-12T02:15:40.134Z,44.21
2016-12-12T02:16:40.167Z,44.31
2016-12-12T02:17:40.196Z,44.49
2016-12-12T02:18:40.229Z,44.49
2016-12-12T02:19:40.250Z,44.11
2016-12-12T02:20:40.274Z,44.49
2016-12-12T02:21:40.003Z,44.11
2016-12-12T02:22:40.024Z,44.11
2016-12-12T02:23:40.056Z,44.02
2016-12-12T02:24:40.385Z,44.11
2016-12-12T02:25:40.410Z,44.31
2016-12-12T02:26:40.451Z,44.31
2016-12-12T02:27:40.471Z,44.21
2016-12-12T02:28:40.200Z,44.21
2016-12-12T02:29:40.533Z,44.21
2016-12-12T02:30:40.557Z,44.4
2016-12-12T02:31:40.586Z,44.11
2016-12-12T02:32:40.303Z,44.21
2016-12-12T02:33:40.636Z,44.11
2016-12-12T02:34:40.361Z,44.21
2016-12-12T02:35:40.694Z,44.11
2016-12-12T02:36:40.727Z,44.09
2016-12-12T02:37:40.755Z,44.21
2016-12-12T02:38:40.771Z,44.31
2016-12-12T02:39:40.496Z,44.11
2016-12-12T02:40:40.525Z,44.11
2016-12-12T02:41:40.862Z,44.19
2016-12-12T02:42:40.579Z,44.19
2016-12-12T02:43:40.908Z,44.38
2016-12-12T02:44:40.942Z,44.49
2016-12-12T02:45:40.961Z,44.31
2016-12-12T02:46:40.997Z,44.28
2016-12-12T02:47:41.023Z,44.49
2016-12-12T02:48:40.743Z,44.11
2016-12-12T02:49:41.072Z,44.21
2016-12-12T02:50:41.104Z,44.31
2016-12-12T02:51:41.137Z,44.09
2016-12-12T02:52:41.158Z,44.09
2016-12-12T02:53:41.183Z,44.09
2016-12-12T02:54:41.219Z,44.09
2016-12-12T02:55:41.244Z,44.09
2016-12-12T02:56:41.269Z,43.99
2016-12-12T02:57:41.289Z,44.09
2016-12-12T02:58:41.322Z,44.11
2016-12-12T02:59:41.051Z,44.48
2016-12-12T03:00:41.384Z,44.48
2016-12-12T03:01:41.405Z,44.48
2016-12-12T03:02:41.137Z,44.09
2016-12-12T03:03:41.498Z,44.09
2016-12-12T03:04:41.478Z,44.19
2016-12-12T03:05:41.511Z,44.19
2016-12-12T03:06:41.538Z,44.19
2016-12-12T03:07:41.566Z,44.09
2016-12-12T03:08:41.601Z,44.28
2016-12-12T03:09:41.626Z,44.19
2016-12-12T03:10:41.656Z,44.09
2016-12-12T03:11:41.380Z,44.09
2016-12-12T03:12:41.709Z,44.09
2016-12-12T03:13:41.429Z,44.48
2016-12-12T03:14:41.758Z,44.28
2016-12-12T03:15:41.790Z,44.4
2016-12-12T03:16:41.823Z,44.28
2016-12-12T03:17:41.840Z,44.38
2016-12-12T03:18:41.877Z,44.28
2016-12-12T03:19:41.909Z,44.38
2016-12-12T03:20:41.933Z,44.48
2016-12-12T03:21:41.959Z,44.38
2016-12-12T03:22:41.979Z,44.28
2016-12-12T03:23:42.008Z,44.38
2016-12-12T03:24:42.029Z,44.48
2016-12-12T03:25:42.059Z,44.48
2016-12-12T03:26:42.094Z,44.09
2016-12-12T03:27:42.123Z,44.19
2016-12-12T03:28:42.150Z,44.28
2016-12-12T03:29:42.172Z,44.28
2016-12-12T03:30:42.197Z,44.38
2016-12-12T03:31:42.231Z,44.38
2016-12-12T03:32:41.951Z,44.38
2016-12-12T03:33:41.975Z,44.09
2016-12-12T03:34:42.004Z,44.19
2016-12-12T03:35:42.036Z,44.38
2016-12-12T03:36:42.073Z,44.19
2016-12-12T03:37:42.402Z,44.38
2016-12-12T03:38:42.423Z,44.09
2016-12-12T03:39:42.447Z,44.38
2016-12-12T03:40:42.472Z,44.48
2016-12-12T03:41:42.501Z,44.48
2016-12-12T03:42:42.538Z,44.28
2016-12-12T03:43:42.254Z,44.19
2016-12-12T03:44:42.283Z,44.48
2016-12-12T03:45:42.616Z,44.09
2016-12-12T03:46:42.342Z,44.28
2016-12-12T03:47:42.674Z,44.28
2016-12-12T03:48:42.694Z,43.99
2016-12-12T03:49:42.718Z,44.28
2016-12-12T03:50:42.755Z,44.57
2016-12-12T03:51:42.784Z,44.57
2016-12-12T03:52:42.771Z,44.28
2016-12-12T03:53:42.534Z,44.38
2016-12-12T03:54:42.858Z,44.38
2016-12-12T03:55:42.886Z,44.38
2016-12-12T03:56:42.907Z,44.38
2016-12-12T03:57:42.632Z,44.48
2016-12-12T03:58:42.965Z,44.38
2016-12-12T03:59:42.996Z,44.09
2016-12-12T04:00:43.030Z,44.48
2016-12-12T04:01:43.055Z,44.19
2016-12-12T04:02:43.080Z,44.19
2016-12-12T04:03:42.805Z,44.19
2016-12-12T04:04:43.128Z,44.19
2016-12-12T04:05:43.171Z,44.19
2016-12-12T04:06:43.194Z,44.19
2016-12-12T04:07:43.220Z,44.28
2016-12-12T04:08:43.251Z,44.38
2016-12-12T04:09:43.268Z,44.38
2016-12-12T04:10:42.990Z,44.38
2016-12-12T04:11:43.026Z,44.38
2016-12-12T04:12:43.350Z,44.19
2016-12-12T04:13:43.070Z,44.28
2016-12-12T04:14:43.405Z,44.19
2016-12-12T04:15:43.442Z,44.38
2016-12-12T04:16:43.453Z,44.19
2016-12-12T04:17:43.494Z,44.48
2016-12-12T04:18:43.526Z,44.48
2016-12-12T04:19:43.243Z,44.38
2016-12-12T04:20:43.268Z,44.28
2016-12-12T04:21:43.592Z,44.38
2016-12-12T04:22:43.625Z,44.48
2016-12-12T04:23:43.654Z,44.28
2016-12-12T04:24:43.674Z,44.28
2016-12-12T04:25:43.714Z,44.09
2016-12-12T04:26:43.432Z,44.38
2016-12-12T04:27:43.461Z,44.38
2016-12-12T04:28:43.797Z,43.99
2016-12-12T04:29:43.814Z,44.28
2016-12-12T04:30:43.536Z,44.38
2016-12-12T04:31:43.875Z,44.48
2016-12-12T04:32:43.895Z,44.38
2016-12-12T04:33:43.924Z,44.19
2016-12-12T04:34:43.961Z,44.48
2016-12-12T04:35:43.977Z,44.38
2016-12-12T04:36:43.702Z,44.19
2016-12-12T04:37:44.039Z,44.48
2016-12-12T04:38:44.055Z,44.38
2016-12-12T04:39:44.083Z,43.99
2016-12-12T04:40:44.116Z,44.48
2016-12-12T04:41:43.832Z,44.48
2016-12-12T04:42:43.865Z,44.38
2016-12-12T04:43:44.195Z,44.48
2016-12-12T04:44:43.924Z,44.28
2016-12-12T04:45:43.950Z,44.38
2016-12-12T04:46:43.975Z,44.38
2016-12-12T04:47:44.312Z,44.38
2016-12-12T04:48:44.361Z,44.28
2016-12-12T04:49:44.365Z,43.99
2016-12-12T04:50:44.391Z,44.28
2016-12-12T04:51:44.418Z,43.99
2016-12-12T04:52:44.136Z,44.19
2016-12-12T04:53:44.168Z,44.28
2016-12-12T04:54:44.196Z,44.38
2016-12-12T04:55:44.521Z,44.57
2016-12-12T04:56:44.541Z,44.28
2016-12-12T04:57:44.574Z,44.09
2016-12-12T04:58:44.306Z,44.19
2016-12-12T04:59:44.631Z,44.09
2016-12-12T05:00:44.656Z,44.09
2016-12-12T05:01:44.388Z,44.28
2016-12-12T05:02:44.411Z,44.48
2016-12-12T05:03:44.755Z,44.38
2016-12-12T05:04:44.758Z,44.28
2016-12-12T05:05:44.799Z,43.9
2016-12-12T05:06:44.823Z,44.19
2016-12-12T05:07:44.848Z,44.28
2016-12-12T05:08:44.898Z,43.99
2016-12-12T05:09:44.910Z,43.8
2016-12-12T05:10:44.931Z,44.09
2016-12-12T05:11:44.958Z,44.19
2016-12-12T05:12:44.684Z,44.19
2016-12-12T05:13:45.017Z,44.19
2016-12-12T05:14:45.049Z,44.19
2016-12-12T05:15:45.066Z,43.9
2016-12-12T05:16:44.795Z,43.9
2016-12-12T05:17:45.128Z,43.9
2016-12-12T05:18:45.153Z,44.19
2016-12-12T05:19:45.177Z,44.09
2016-12-12T05:20:45.199Z,43.71
2016-12-12T05:21:45.235Z,43.99
2016-12-12T05:22:45.255Z,43.8
2016-12-12T05:23:45.292Z,43.9
2016-12-12T05:24:45.326Z,43.9
2016-12-12T05:25:45.043Z,44.09
2016-12-12T05:26:45.373Z,44.28
2016-12-12T05:27:45.431Z,44.48
2016-12-12T05:28:45.124Z,44.38
2016-12-12T05:29:45.152Z,44.38
2016-12-12T05:30:45.481Z,44.48
2016-12-12T05:31:45.498Z,44.38
2016-12-12T05:32:45.547Z,44.19
2016-12-12T05:33:45.560Z,44.48
2016-12-12T05:34:45.581Z,44.48
2016-12-12T05:35:45.313Z,44.48
2016-12-12T05:36:45.642Z,44.38
2016-12-12T05:37:45.675Z,44.09
2016-12-12T05:38:45.392Z,44.19
2016-12-12T05:39:45.724Z,44.38
2016-12-12T05:40:45.762Z,44.38
2016-12-12T05:41:45.778Z,44.19
2016-12-12T05:42:45.503Z,44.19
2016-12-12T05:43:45.536Z,44.38
2016-12-12T05:44:45.869Z,44.19
2016-12-12T05:45:45.889Z,44.38
2016-12-12T05:46:45.913Z,44.09
2016-12-12T05:47:45.942Z,44.19
2016-12-12T05:48:45.971Z,43.99
2016-12-12T05:49:45.695Z,43.99
2016-12-12T05:50:46.029Z,43.71
2016-12-12T05:51:46.053Z,43.9
2016-12-12T05:52:46.086Z,43.71
2016-12-12T05:53:46.115Z,43.82
2016-12-12T05:54:46.136Z,43.63
2016-12-12T05:55:46.160Z,43.82
2016-12-12T05:56:46.189Z,43.63
2016-12-12T05:57:46.214Z,43.54
2016-12-12T05:58:45.935Z,44.02
2016-12-12T05:59:46.271Z,43.82
2016-12-12T06:00:46.288Z,43.92
2016-12-12T06:01:46.025Z,43.92
2016-12-12T06:02:46.050Z,44.21
2016-12-12T06:03:46.367Z,43.73
2016-12-12T06:04:46.403Z,43.73
2016-12-12T06:05:46.436Z,43.92
2016-12-12T06:06:46.156Z,43.82
2016-12-12T06:07:46.185Z,43.82
2016-12-12T06:08:46.514Z,43.63
2016-12-12T06:09:46.243Z,43.63
2016-12-12T06:10:46.572Z,43.63
2016-12-12T06:11:46.600Z,43.73
2016-12-12T06:12:46.625Z,43.73
2016-12-12T06:13:46.654Z,43.73
2016-12-12T06:14:46.687Z,43.73
2016-12-12T06:15:46.712Z,43.63
2016-12-12T06:16:46.736Z,43.73
2016-12-12T06:17:46.462Z,43.73
2016-12-12T06:18:46.498Z,43.73
2016-12-12T06:19:46.523Z,43.73
2016-12-12T06:20:46.851Z,43.94
2016-12-12T06:21:46.875Z,43.73
2016-12-12T06:22:46.597Z,43.94
2016-12-12T06:23:46.955Z,43.94
2016-12-12T06:24:46.654Z,44.02
2016-12-12T06:25:46.683Z,43.65
2016-12-12T06:26:46.708Z,43.82
2016-12-12T06:27:47.045Z,44.23
2016-12-12T06:28:47.070Z,44.23
2016-12-12T06:29:47.103Z,44.32
2016-12-12T06:30:47.124Z,44.32
2016-12-12T06:31:46.852Z,44.32
2016-12-12T06:32:47.181Z,44.23
2016-12-12T06:33:47.205Z,43.94
2016-12-12T06:34:47.230Z,44.13
2016-12-12T06:35:46.963Z,44.52
2016-12-12T06:36:47.283Z,44.23
2016-12-12T06:37:47.312Z,44.52
2016-12-12T06:38:47.349Z,44.23
2016-12-12T06:39:47.070Z,44.42
2016-12-12T06:40:47.402Z,44.42
2016-12-12T06:41:47.132Z,44.32
2016-12-12T06:42:47.456Z,44.23
2016-12-12T06:43:47.176Z,44.52
2016-12-12T06:44:47.201Z,44.42
2016-12-12T06:45:47.542Z,44.32
2016-12-12T06:46:47.567Z,44.32
2016-12-12T06:47:47.590Z,44.42
2016-12-12T06:48:47.316Z,44.42
2016-12-12T06:49:47.653Z,44.71
2016-12-12T06:50:47.374Z,44.23
2016-12-12T06:51:47.703Z,44.62
2016-12-12T06:52:47.422Z,43.85
2016-12-12T06:53:47.752Z,44.32
2016-12-12T06:54:47.780Z,43.96
2016-12-12T06:55:47.809Z,44.04
2016-12-12T06:56:47.536Z,43.75
2016-12-12T06:57:47.559Z,43.85
2016-12-12T06:58:47.599Z,43.85
2016-12-12T06:59:47.624Z,43.87
2016-12-12T07:00:47.654Z,43.87
2016-12-12T07:01:47.977Z,44.23
2016-12-12T07:02:47.701Z,43.85
2016-12-12T07:03:48.030Z,43.94
2016-12-12T07:04:48.055Z,43.96
2016-12-12T07:05:47.784Z,44.64
2016-12-12T07:06:48.117Z,44.25
2016-12-12T07:07:48.150Z,44.04
2016-12-12T07:08:47.867Z,44.25
2016-12-12T07:09:48.207Z,44.15
2016-12-12T07:10:47.928Z,44.25
2016-12-12T07:11:48.257Z,44.35
2016-12-12T07:12:48.286Z,44.35
2016-12-12T07:13:48.315Z,44.35
2016-12-12T07:14:48.040Z,44.45
2016-12-12T07:15:48.368Z,44.15
2016-12-12T07:16:48.097Z,44.15
2016-12-12T07:17:48.122Z,44.45
2016-12-12T07:18:48.450Z,44.06
2016-12-12T07:19:48.171Z,44.15
2016-12-12T07:20:48.212Z,44.25
2016-12-12T07:21:48.537Z,43.96
2016-12-12T07:22:48.258Z,44.25
2016-12-12T07:23:48.586Z,43.96
2016-12-12T07:24:48.319Z,44.15
2016-12-12T07:25:48.644Z,44.25
2016-12-12T07:26:48.677Z,43.87
2016-12-12T07:27:48.695Z,43.77
2016-12-12T07:28:48.725Z,43.87
2016-12-12T07:29:48.763Z,43.87
2016-12-12T07:30:48.788Z,43.96
2016-12-12T07:31:48.804Z,43.77
2016-12-12T07:32:48.841Z,43.77
2016-12-12T07:33:48.874Z,43.77
2016-12-12T07:34:48.898Z,43.77
2016-12-12T07:35:48.923Z,43.67
2016-12-12T07:36:48.648Z,43.87
2016-12-12T07:37:48.981Z,43.67
2016-12-12T07:38:49.038Z,44.06
2016-12-12T07:39:48.730Z,43.58
2016-12-12T07:40:49.067Z,44.15
2016-12-12T07:41:48.791Z,43.96
2016-12-12T07:42:49.117Z,43.96
2016-12-12T07:43:49.154Z,43.96
2016-12-12T07:44:49.166Z,43.77
2016-12-12T07:45:49.191Z,43.96
2016-12-12T07:46:48.933Z,44.15
2016-12-12T07:47:49.257Z,43.87
2016-12-12T07:48:49.293Z,44.06
2016-12-12T07:49:49.314Z,43.77
2016-12-12T07:50:49.044Z,44.06
2016-12-12T07:51:49.372Z,44.15
2016-12-12T07:52:49.109Z,43.77
2016-12-12T07:53:49.422Z,43.87
2016-12-12T07:54:49.154Z,44.15
2016-12-12T07:55:49.491Z,43.96
2016-12-12T07:56:49.211Z,44.06
2016-12-12T07:57:49.540Z,44.15
2016-12-12T07:58:49.265Z,43.87
2016-12-12T07:59:49.591Z,43.87
2016-12-12T08:00:49.619Z,43.77
2016-12-12T08:01:49.344Z,43.58
2016-12-12T08:02:49.684Z,43.67
2016-12-12T08:03:49.405Z,43.77
2016-12-12T08:04:49.738Z,43.87
2016-12-12T08:05:49.463Z,43.77
2016-12-12T08:06:49.492Z,43.77
2016-12-12T08:07:49.516Z,43.67
2016-12-12T08:08:49.541Z,43.77
2016-12-12T08:09:49.565Z,43.77
2016-12-12T08:10:49.894Z,43.87
2016-12-12T08:11:49.623Z,43.87
2016-12-12T08:12:49.956Z,43.96
2016-12-12T08:13:49.677Z,43.87
2016-12-12T08:14:50.018Z,43.87
2016-12-12T08:15:50.046Z,43.87
2016-12-12T08:16:49.771Z,43.96
2016-12-12T08:17:50.108Z,44.15
2016-12-12T08:18:50.128Z,44.15
2016-12-12T08:19:50.149Z,44.54
2016-12-12T08:20:49.870Z,44.32
2016-12-12T08:21:50.210Z,44.35
2016-12-12T08:22:49.936Z,44.42
2016-12-12T08:23:50.268Z,44.35
2016-12-12T08:24:49.993Z,44.45
2016-12-12T08:25:50.018Z,44.45
2016-12-12T08:26:50.046Z,44.54
2016-12-12T08:27:50.385Z,44.62
2016-12-12T08:28:50.412Z,44.42
2016-12-12T08:29:50.128Z,44.42
2016-12-12T08:30:50.457Z,44.32
2016-12-12T08:31:50.182Z,44.62
2016-12-12T08:32:50.514Z,44.32
2016-12-12T08:33:50.548Z,44.04
2016-12-12T08:34:50.576Z,44.32
2016-12-12T08:35:50.601Z,44.42
2016-12-12T08:36:50.630Z,44.42
2016-12-12T08:37:50.650Z,44.71
2016-12-12T08:38:50.683Z,44.32
2016-12-12T08:39:50.712Z,44.32
2016-12-12T08:40:50.428Z,44.71
2016-12-12T08:41:50.773Z,44.32
2016-12-12T08:42:50.498Z,44.42
2016-12-12T08:43:50.827Z,44.32
2016-12-12T08:44:50.852Z,44.42
2016-12-12T08:45:50.578Z,44.71
2016-12-12T08:46:50.909Z,44.71
2016-12-12T08:47:50.929Z,44.42
2016-12-12T08:48:50.971Z,44.42
2016-12-12T08:49:50.991Z,44.42
2016-12-12T08:50:51.016Z,44.32
2016-12-12T08:51:50.737Z,44.42
2016-12-12T08:53:59.714Z,44.42
2016-12-12T08:54:59.415Z,44.42
2016-12-12T08:55:59.444Z,44.42
2016-12-12T08:56:59.773Z,44.23
2016-12-12T08:57:59.797Z,44.52
2016-12-12T08:58:59.814Z,44.62
2016-12-12T08:59:59.858Z,44.23
2016-12-12T09:00:59.580Z,44.23
2016-12-12T09:01:59.908Z,44.23
2016-12-12T09:02:59.629Z,44.42
2016-12-12T09:03:59.966Z,44.42
2016-12-12T09:04:59.699Z,44.23
2016-12-12T09:05:59.720Z,44.42
2016-12-12T09:07:00.055Z,44.52
2016-12-12T09:08:00.081Z,44.23
2016-12-12T09:09:00.111Z,44.32
2016-12-12T09:10:00.139Z,44.32
2016-12-12T09:10:59.851Z,44.23
2016-12-12T09:12:00.185Z,44.32
2016-12-12T09:13:00.224Z,44.23
2016-12-12T09:14:00.258Z,44.52
2016-12-12T09:14:59.977Z,44.13
2016-12-12T09:16:00.294Z,44.13
2016-12-12T09:17:00.327Z,44.23
2016-12-12T09:18:00.364Z,44.13
2016-12-12T09:19:00.393Z,44.23
2016-12-12T09:20:00.413Z,44.52
2016-12-12T09:21:00.434Z,44.62
2016-12-12T09:22:00.488Z,44.13
2016-12-12T09:23:00.499Z,44.52
2016-12-12T09:24:00.216Z,44.04
2016-12-12T09:25:00.240Z,44.13
2016-12-12T09:26:00.274Z,44.11
2016-12-12T09:27:00.610Z,44.23
2016-12-12T09:28:00.341Z,44.13
2016-12-12T09:29:00.360Z,44.23
2016-12-12T09:30:00.688Z,44.23
2016-12-12T09:31:00.716Z,44.13
2016-12-12T09:32:00.751Z,44.13
2016-12-12T09:33:00.466Z,44.13
2016-12-12T09:34:00.496Z,44.32
2016-12-12T09:35:00.528Z,44.13
2016-12-12T09:36:00.857Z,44.04
2016-12-12T09:37:00.581Z,44.13
2016-12-12T09:38:00.610Z,44.11
2016-12-12T09:39:00.939Z,44.32
2016-12-12T09:40:00.668Z,44.13
2016-12-12T09:41:00.996Z,44.32
2016-12-12T09:42:00.719Z,44.32
2016-12-12T09:43:00.742Z,44.31
2016-12-12T09:44:01.078Z,44.13
2016-12-12T09:45:01.103Z,44.13
2016-12-12T09:46:01.137Z,44.23
2016-12-12T09:47:00.861Z,44.04
2016-12-12T09:48:00.889Z,44.04
2016-12-12T09:49:00.918Z,44.11
2016-12-12T09:50:01.247Z,44.21
2016-12-12T09:51:01.267Z,44.02
2016-12-12T09:52:01.300Z,44.13
2016-12-12T09:53:01.021Z,44.49
2016-12-12T09:54:01.050Z,44.21
2016-12-12T09:55:01.379Z,44.4
2016-12-12T09:56:01.111Z,44.4
2016-12-12T09:57:01.440Z,44.04
2016-12-12T09:58:01.165Z,44.11
2016-12-12T09:59:01.497Z,44.4
2016-12-12T10:00:01.218Z,44.4
2016-12-12T10:01:01.555Z,44.59
2016-12-12T10:02:01.271Z,44.4
2016-12-12T10:03:01.304Z,44.69
2016-12-12T10:04:01.332Z,44.52
2016-12-12T10:05:01.358Z,44.4
2016-12-12T10:06:01.383Z,44.59
2016-12-12T10:07:01.719Z,44.79
2016-12-12T10:08:01.745Z,44.69
2016-12-12T10:09:01.760Z,44.59
2016-12-12T10:10:01.793Z,44.79
2016-12-12T10:11:01.826Z,44.79
2016-12-12T10:12:01.554Z,44.79
2016-12-12T10:13:01.883Z,44.89
2016-12-12T10:14:01.912Z,44.69
2016-12-12T10:15:01.637Z,44.89
2016-12-12T10:16:01.664Z,44.79
2016-12-12T10:17:01.687Z,44.79
2016-12-12T10:18:01.715Z,44.49
2016-12-12T10:19:01.743Z,44.49
2016-12-12T10:20:02.080Z,44.69
2016-12-12T10:21:02.101Z,44.89
2016-12-12T10:22:02.134Z,44.89
2016-12-12T10:23:01.859Z,44.59
2016-12-12T10:24:02.191Z,44.79
2016-12-12T10:25:02.216Z,44.49
2016-12-12T10:26:01.932Z,44.49
2016-12-12T10:27:02.269Z,44.4
2016-12-12T10:28:02.294Z,44.49
2016-12-12T10:29:02.327Z,44.4
2016-12-12T10:30:02.351Z,44.4
2016-12-12T10:31:02.384Z,44.21
2016-12-12T10:32:02.411Z,44.21
2016-12-12T10:33:02.142Z,44.49
2016-12-12T10:34:02.458Z,44.31
2016-12-12T10:35:02.486Z,44.4
2016-12-12T10:36:02.516Z,44.49
2016-12-12T10:37:02.245Z,44.21
2016-12-12T10:38:02.573Z,44.4
2016-12-12T10:39:02.610Z,44.31
2016-12-12T10:40:02.635Z,44.21
2016-12-12T10:41:02.667Z,44.49
2016-12-12T10:42:02.684Z,44.4
2016-12-12T10:43:02.712Z,44.69
2016-12-12T10:44:02.737Z,44.49
2016-12-12T10:45:02.766Z,44.59
2016-12-12T10:46:02.791Z,44.21
2016-12-12T10:47:02.832Z,44.4
2016-12-12T10:48:02.864Z,44.31
2016-12-12T10:49:02.581Z,44.21
2016-12-12T10:50:02.602Z,44.21
2016-12-12T10:51:02.942Z,44.11
2016-12-12T10:52:02.666Z,44.21
2016-12-12T10:53:02.995Z,44.21
2016-12-12T10:54:03.008Z,44.21
2016-12-12T10:55:02.753Z,44.31
2016-12-12T10:56:03.079Z,44.11
2016-12-12T10:57:02.803Z,44.02
2016-12-12T10:58:03.137Z,44.11
2016-12-12T10:59:02.856Z,44.11
2016-12-12T11:00:03.192Z,44.02
2016-12-12T11:01:03.217Z,44.02
2016-12-12T11:02:03.242Z,44.21
2016-12-12T11:03:03.273Z,44.11
2016-12-12T11:04:03.304Z,44.21
2016-12-12T11:05:03.020Z,44.02
2016-12-12T11:06:03.351Z,44.02
2016-12-12T11:07:03.598Z,44.02
2016-12-12T11:08:03.402Z,44.11
2016-12-12T11:09:03.123Z,44.49
2016-12-12T11:10:03.152Z,44.11
2016-12-12T11:11:03.492Z,44.02
2016-12-12T11:12:03.525Z,44.21
2016-12-12T11:13:03.546Z,44.21
2016-12-12T11:14:03.271Z,44.69
2016-12-12T11:15:03.604Z,44.21
2016-12-12T11:16:03.632Z,44.02
2016-12-12T11:17:03.657Z,44.11
2016-12-12T11:18:03.678Z,44.11
2016-12-12T11:19:03.707Z,44.49
2016-12-12T11:20:03.427Z,44.11
2016-12-12T11:21:03.465Z,44.59
2016-12-12T11:22:03.792Z,44.11
2016-12-12T11:23:03.825Z,44.02
2016-12-12T11:24:03.847Z,44.11
2016-12-12T11:25:03.875Z,44.31
2016-12-12T11:26:03.907Z,44.31
2016-12-12T11:27:03.936Z,44.02
2016-12-12T11:28:03.957Z,44.49
2016-12-12T11:29:03.998Z,44.31
2016-12-12T11:30:03.714Z,44.11
2016-12-12T11:31:03.740Z,44.11
2016-12-12T11:32:04.063Z,44.11
2016-12-12T11:33:04.096Z,44.11
2016-12-12T11:34:04.129Z,44.11
2016-12-12T11:35:04.153Z,44.4
2016-12-12T11:36:03.874Z,44.21
2016-12-12T11:37:03.903Z,44.11
2016-12-12T11:38:04.235Z,44.31
2016-12-12T11:39:03.960Z,44.21
2016-12-12T11:40:03.993Z,44.11
2016-12-12T11:41:04.014Z,44.4
2016-12-12T11:42:04.338Z,44.21
2016-12-12T11:43:04.371Z,44.21
2016-12-12T11:44:04.408Z,44.21
2016-12-12T11:45:04.420Z,44.4
2016-12-12T11:46:04.454Z,44.21
2016-12-12T11:47:04.482Z,44.11
2016-12-12T11:48:04.518Z,44.4
2016-12-12T11:49:04.543Z,44.21
2016-12-12T11:50:04.568Z,44.21
2016-12-12T11:51:04.588Z,44.31
2016-12-12T11:52:04.617Z,44.31
2016-12-12T11:53:04.650Z,44.21
2016-12-12T11:54:04.679Z,44.11
2016-12-12T11:55:04.709Z,44.21
2016-12-12T11:56:04.429Z,44.11
2016-12-12T11:57:04.452Z,44.02
2016-12-12T11:58:04.789Z,44.02
2016-12-12T11:59:04.811Z,44.21
2016-12-12T12:00:04.839Z,44.02
2016-12-12T12:01:04.875Z,44.02
2016-12-12T12:02:04.596Z,44.02
2016-12-12T12:03:04.925Z,44.02
2016-12-12T12:04:04.654Z,44.21
2016-12-12T12:05:04.986Z,44.02
2016-12-12T12:06:04.703Z,44.02
2016-12-12T12:07:05.031Z,44.02
2016-12-12T12:08:05.064Z,44.02
2016-12-12T12:09:05.094Z,44.11
2016-12-12T12:10:05.122Z,44.31
2016-12-12T12:11:04.847Z,44.11
2016-12-12T12:12:04.872Z,44.02
2016-12-12T12:13:05.200Z,44.31
2016-12-12T12:14:05.233Z,44.31
2016-12-12T12:15:05.253Z,44.21
2016-12-12T12:16:05.282Z,44.11
2016-12-12T12:17:05.003Z,44.31
2016-12-12T12:18:05.040Z,44.11
2016-12-12T12:19:05.368Z,44.49
2016-12-12T12:20:05.405Z,44.02
2016-12-12T12:21:05.430Z,44.21
2016-12-12T12:22:05.442Z,44.02
2016-12-12T12:23:05.475Z,44.11
2016-12-12T12:24:05.511Z,44.21
2016-12-12T12:25:05.533Z,44.31
2016-12-12T12:26:05.557Z,44.21
2016-12-12T12:27:05.582Z,44.11
2016-12-12T12:28:05.319Z,44.02
2016-12-12T12:29:05.643Z,44.02
2016-12-12T12:30:05.663Z,44.31
2016-12-12T12:31:05.700Z,44.49
2016-12-12T12:32:05.724Z,44.4
2016-12-12T12:33:05.753Z,44.4
2016-12-12T12:34:05.782Z,44.31
2016-12-12T12:35:05.839Z,44.02
2016-12-12T12:36:05.536Z,44.11
2016-12-12T12:37:05.869Z,44.21
2016-12-12T12:38:05.889Z,44.11
2016-12-12T12:39:05.605Z,44.11
2016-12-12T12:40:05.953Z,44.21
2016-12-12T12:41:05.977Z,44.11
2016-12-12T12:42:05.995Z,44.11
2016-12-12T12:43:06.023Z,44.11
2016-12-12T12:44:06.053Z,44.21
2016-12-12T12:45:06.090Z,44.49
2016-12-12T12:46:05.801Z,44.11
2016-12-12T12:47:06.134Z,44.11
2016-12-12T12:48:06.164Z,44.11
2016-12-12T12:49:05.892Z,44.02
2016-12-12T12:50:06.225Z,44.11
2016-12-12T12:51:06.245Z,44.11
2016-12-12T12:52:06.274Z,44.21
2016-12-12T12:53:06.307Z,44.4
2016-12-12T12:54:06.031Z,44.11
2016-12-12T12:55:06.356Z,44.31